createdAt,value
2022-10-22T00:00:08.738Z,2.13
2022-10-22T00:02:36.023Z,2.13
2022-10-22T00:05:04.232Z,2.25
2022-10-22T00:07:31.661Z,2.30
2022-10-22T00:09:59.137Z,2.30
2022-10-22T00:12:26.873Z,2.78
2022-10-22T00:14:54.024Z,2.30
2022-10-22T00:17:21.520Z,2.28
2022-10-22T00:19:48.849Z,2.00
2022-10-22T00:22:16.288Z,2.15
2022-10-22T00:24:44.043Z,2.50
2022-10-22T00:27:12.389Z,2.53
2022-10-22T00:29:39.950Z,2.53
2022-10-22T00:32:07.786Z,2.30
2022-10-22T00:34:35.087Z,2.33
2022-10-22T00:37:02.238Z,2.40
2022-10-22T00:39:29.819Z,2.40
2022-10-22T00:41:58.231Z,2.63
2022-10-22T00:45:03.081Z,2.88
2022-10-22T00:47:39.686Z,2.40
2022-10-22T00:50:12.128Z,2.70
2022-10-22T00:52:40.217Z,2.47
2022-10-22T00:55:08.002Z,2.45
2022-10-22T00:57:35.830Z,2.65
2022-10-22T01:00:04.767Z,2.58
2022-10-22T01:02:39.796Z,2.42
2022-10-22T01:05:07.634Z,2.90
2022-10-22T01:07:41.129Z,3.10
2022-10-22T01:10:12.639Z,2.78
2022-10-22T01:12:58.325Z,2.95
2022-10-22T01:15:34.033Z,2.50
2022-10-22T01:18:10.624Z,2.50
2022-10-22T01:20:49.905Z,2.60
2022-10-22T01:23:50.779Z,2.92
2022-10-22T01:26:32.507Z,3.03
2022-10-22T01:29:07.616Z,3.67
2022-10-22T01:31:45.646Z,4.10
2022-10-22T01:34:15.267Z,2.72
2022-10-22T01:36:42.954Z,2.92
2022-10-22T01:39:11.048Z,2.60
2022-10-22T01:41:39.400Z,2.58
2022-10-22T01:44:06.516Z,2.67
2022-10-22T01:46:33.946Z,2.85
2022-10-22T01:49:28.054Z,3.00
2022-10-22T01:52:34.225Z,2.72
2022-10-22T01:55:28.340Z,2.92
2022-10-22T01:58:03.630Z,2.43
2022-10-22T02:00:30.856Z,2.90
2022-10-22T02:03:04.930Z,2.95
2022-10-22T02:05:41.297Z,2.58
2022-10-22T02:08:10.501Z,3.22
2022-10-22T02:10:39.653Z,2.83
2022-10-22T02:13:13.453Z,3.35
2022-10-22T02:15:42.052Z,3.05
2022-10-22T02:18:09.808Z,3.40
2022-10-22T02:20:38.921Z,2.90
2022-10-22T02:23:06.206Z,2.93
2022-10-22T02:25:39.758Z,2.80
2022-10-22T02:28:16.982Z,2.35
2022-10-22T02:30:48.194Z,2.80
2022-10-22T02:33:22.107Z,3.00
2022-10-22T02:35:49.937Z,3.07
2022-10-22T02:38:17.496Z,2.80
2022-10-22T02:40:44.924Z,2.78
2022-10-22T02:43:12.034Z,2.47
2022-10-22T02:45:39.159Z,2.42
2022-10-22T02:48:06.484Z,2.93
2022-10-22T02:50:33.660Z,3.00
2022-10-22T02:53:00.781Z,2.72
2022-10-22T02:55:28.037Z,2.58
2022-10-22T02:57:55.128Z,2.83
2022-10-22T03:00:22.661Z,3.03
2022-10-22T03:02:49.889Z,2.75
2022-10-22T03:05:17.081Z,3.35
2022-10-22T03:07:44.241Z,3.30
2022-10-22T03:10:11.398Z,3.53
2022-10-22T03:12:38.557Z,3.27
2022-10-22T03:15:06.099Z,3.30
2022-10-22T03:17:33.195Z,3.28
2022-10-22T03:20:00.295Z,3.40
2022-10-22T03:22:29.291Z,3.78
2022-10-22T03:24:59.387Z,3.53
2022-10-22T03:27:28.400Z,3.50
2022-10-22T03:29:57.021Z,2.95
2022-10-22T03:32:24.253Z,3.55
2022-10-22T03:34:51.456Z,3.22
2022-10-22T03:37:18.729Z,3.57
2022-10-22T03:39:46.044Z,3.53
2022-10-22T03:42:13.539Z,4.10
2022-10-22T03:44:41.149Z,3.13
2022-10-22T03:47:08.337Z,4.45
2022-10-22T03:49:35.922Z,3.50
2022-10-22T03:52:11.859Z,3.35
2022-10-22T03:54:40.049Z,3.08
2022-10-22T03:57:07.242Z,3.42
2022-10-22T03:59:42.720Z,3.10
2022-10-22T04:02:11.024Z,4.17
2022-10-22T04:04:39.594Z,3.42
2022-10-22T04:07:07.307Z,3.58
2022-10-22T04:09:35.086Z,3.60
2022-10-22T04:12:02.314Z,3.28
2022-10-22T04:14:29.422Z,4.43
2022-10-22T04:16:56.568Z,3.78
2022-10-22T04:19:23.752Z,3.55
2022-10-22T04:21:50.875Z,3.80
2022-10-22T04:24:18.147Z,3.10
2022-10-22T04:26:45.301Z,3.53
2022-10-22T04:29:15.959Z,3.65
2022-10-22T04:31:43.684Z,3.22
2022-10-22T04:34:10.841Z,3.40
2022-10-22T04:36:38.074Z,3.70
2022-10-22T04:39:06.099Z,4.20
2022-10-22T04:41:36.137Z,4.07
2022-10-22T04:44:03.916Z,3.80
2022-10-22T04:46:33.511Z,3.60
2022-10-22T04:49:01.071Z,4.10
2022-10-22T04:51:28.296Z,3.40
2022-10-22T04:53:55.418Z,3.88
2022-10-22T04:56:25.574Z,3.50
2022-10-22T04:59:15.183Z,3.55
2022-10-22T05:01:44.097Z,3.78
2022-10-22T05:04:13.170Z,3.90
2022-10-22T05:06:40.461Z,4.10
2022-10-22T05:09:13.975Z,3.65
2022-10-22T05:11:45.325Z,3.97
2022-10-22T05:14:12.582Z,4.15
2022-10-22T05:16:40.032Z,3.80
2022-10-22T05:19:08.068Z,4.30
2022-10-22T05:21:37.615Z,4.00
2022-10-22T05:24:05.100Z,4.82
2022-10-22T05:26:32.244Z,3.45
2022-10-22T05:28:59.424Z,3.93
2022-10-22T05:31:28.773Z,3.63
2022-10-22T05:33:55.937Z,3.40
2022-10-22T05:36:23.385Z,3.50
2022-10-22T05:38:50.638Z,3.78
2022-10-22T05:41:25.339Z,3.23
2022-10-22T05:43:55.775Z,3.15
2022-10-22T05:46:24.538Z,3.28
2022-10-22T05:48:56.698Z,3.40
2022-10-22T05:51:24.783Z,3.22
2022-10-22T05:53:55.818Z,3.20
2022-10-22T05:56:23.344Z,3.50
2022-10-22T05:58:50.741Z,3.60
2022-10-22T06:01:29.055Z,3.40
2022-10-22T06:04:00.725Z,3.50
2022-10-22T06:06:34.060Z,4.07
2022-10-22T06:09:16.478Z,3.38
2022-10-22T06:11:43.661Z,3.50
2022-10-22T06:14:11.066Z,3.70
2022-10-22T06:16:38.537Z,3.30
2022-10-22T06:19:05.702Z,3.63
2022-10-22T06:21:33.130Z,3.42
2022-10-22T06:24:01.028Z,3.47
2022-10-22T06:26:28.379Z,3.60
2022-10-22T06:28:56.177Z,3.53
2022-10-22T06:31:24.108Z,3.47
2022-10-22T06:33:51.240Z,3.40
2022-10-22T06:36:20.559Z,3.20
2022-10-22T06:38:47.877Z,3.58
2022-10-22T06:41:16.377Z,2.97
2022-10-22T06:43:47.709Z,3.30
2022-10-22T06:46:19.837Z,2.90
2022-10-22T06:48:55.302Z,2.97
2022-10-22T06:51:22.587Z,3.30
2022-10-22T06:53:49.939Z,2.60
2022-10-22T06:56:19.140Z,2.53
2022-10-22T06:58:53.593Z,2.17
2022-10-22T07:01:23.372Z,2.30
2022-10-22T07:03:51.864Z,2.15
2022-10-22T07:06:20.164Z,2.40
2022-10-22T07:08:47.476Z,2.30
2022-10-22T07:11:19.655Z,2.60
2022-10-22T07:13:47.035Z,2.33
2022-10-22T07:16:14.722Z,2.17
2022-10-22T07:18:42.249Z,2.15
2022-10-22T07:21:11.307Z,1.83
2022-10-22T07:23:38.595Z,1.95
2022-10-22T07:26:07.492Z,1.92
2022-10-22T07:28:39.829Z,2.38
2022-10-22T07:31:08.879Z,1.67
2022-10-22T07:33:36.241Z,1.90
2022-10-22T07:36:06.707Z,2.10
2022-10-22T07:38:35.027Z,2.00
2022-10-22T07:41:02.787Z,2.33
2022-10-22T07:43:29.823Z,2.10
2022-10-22T07:45:56.874Z,2.00
2022-10-22T07:48:24.089Z,1.80
2022-10-22T07:50:51.497Z,2.10
2022-10-22T07:53:18.898Z,2.38
2022-10-22T07:55:49.008Z,2.22
2022-10-22T07:58:17.382Z,1.70
2022-10-22T08:00:45.081Z,2.00
2022-10-22T08:03:13.179Z,2.05
2022-10-22T08:05:40.967Z,2.08
2022-10-22T08:08:08.058Z,1.88
2022-10-22T08:10:35.345Z,1.77
2022-10-22T08:13:02.649Z,1.80
2022-10-22T08:15:30.223Z,1.98
2022-10-22T08:17:57.304Z,1.75
2022-10-22T08:20:24.693Z,1.55
2022-10-22T08:22:51.976Z,1.93
2022-10-22T08:25:19.143Z,2.00
2022-10-22T08:27:46.248Z,2.40
2022-10-22T08:30:13.856Z,2.15
2022-10-22T08:32:41.788Z,2.45
2022-10-22T08:35:09.844Z,2.23
2022-10-22T08:37:37.519Z,2.47
2022-10-22T08:40:08.855Z,2.15
2022-10-22T08:42:45.148Z,2.63
2022-10-22T08:45:15.809Z,2.22
2022-10-22T08:48:01.398Z,2.00
2022-10-22T08:50:46.976Z,2.00
2022-10-22T08:53:56.734Z,1.90
2022-10-22T08:56:24.408Z,1.75
2022-10-22T08:59:19.092Z,1.65
2022-10-22T09:01:50.099Z,1.90
2022-10-22T09:04:44.419Z,2.00
2022-10-22T09:07:11.477Z,1.70
2022-10-22T09:09:42.754Z,1.30
2022-10-22T09:12:19.343Z,1.35
2022-10-22T09:14:47.514Z,1.33
2022-10-22T09:17:44.516Z,1.27
2022-10-22T09:20:16.945Z,0.57
2022-10-22T09:23:06.295Z,0.90
2022-10-22T09:25:36.015Z,0.90
2022-10-22T09:28:03.790Z,1.20
2022-10-22T09:30:35.155Z,0.52
2022-10-22T09:33:07.098Z,0.80
2022-10-22T09:35:44.082Z,0.60
2022-10-22T09:38:13.703Z,0.77
2022-10-22T09:40:52.181Z,0.83
2022-10-22T09:43:19.825Z,0.40
2022-10-22T09:45:48.193Z,0.50
2022-10-22T09:48:15.139Z,0.90
2022-10-22T09:50:48.172Z,0.77
2022-10-22T09:53:23.672Z,0.67
2022-10-22T09:58:28.785Z,0.45
2022-10-22T10:00:57.887Z,0.60
2022-10-22T10:03:28.643Z,0.40
2022-10-22T10:06:02.988Z,0.40
2022-10-22T10:08:33.490Z,0.80
2022-10-22T10:11:25.527Z,0.85
2022-10-22T10:14:07.466Z,0.77
2022-10-22T10:16:55.981Z,0.50
2022-10-22T10:19:26.924Z,1.13
2022-10-22T10:22:18.795Z,1.08
2022-10-22T10:24:51.075Z,0.90
2022-10-22T10:27:54.816Z,0.80
2022-10-22T10:30:25.927Z,0.70
2022-10-22T10:33:16.299Z,0.63
2022-10-22T10:35:49.000Z,0.70
2022-10-22T10:38:34.942Z,1.00
2022-10-22T10:41:23.815Z,1.10
2022-10-22T10:43:58.421Z,0.90
2022-10-22T10:46:41.216Z,1.00
2022-10-22T10:49:17.470Z,1.00
2022-10-22T10:52:17.398Z,0.80
2022-10-22T10:55:03.930Z,1.17
2022-10-22T10:57:52.786Z,1.20
2022-10-22T11:00:21.212Z,1.10
2022-10-22T11:03:10.315Z,0.90
2022-10-22T11:06:00.353Z,0.70
2022-10-22T11:08:32.696Z,0.90
2022-10-22T11:11:11.540Z,0.70
2022-10-22T11:13:42.840Z,0.80
2022-10-22T11:16:31.163Z,1.00
2022-10-22T11:19:46.054Z,0.60
2022-10-22T11:22:27.143Z,0.73
2022-10-22T11:25:05.343Z,0.63
2022-10-22T11:27:42.954Z,0.60
2022-10-22T11:30:19.698Z,0.90
2022-10-22T11:32:52.998Z,0.65
2022-10-22T11:35:25.819Z,0.90
2022-10-22T11:37:55.454Z,0.98
2022-10-22T11:40:33.029Z,0.53
2022-10-22T11:43:08.048Z,0.70
2022-10-22T11:45:37.935Z,0.73
2022-10-22T11:48:11.230Z,0.55
2022-10-22T11:50:41.019Z,0.70
2022-10-22T11:53:13.807Z,1.03
2022-10-22T11:55:48.594Z,0.70
2022-10-22T11:58:32.320Z,0.65
2022-10-22T12:01:02.131Z,0.60
2022-10-22T12:03:32.200Z,0.68
2022-10-22T12:06:05.042Z,0.90
2022-10-22T12:08:33.159Z,0.88
2022-10-22T12:11:06.493Z,0.68
2022-10-22T12:14:09.786Z,0.57
2022-10-22T12:16:56.556Z,0.60
2022-10-22T12:19:37.550Z,0.80
2022-10-22T12:22:07.633Z,1.00
2022-10-22T12:24:38.527Z,0.63
2022-10-22T12:27:25.857Z,0.57
2022-10-22T12:29:58.125Z,0.70
2022-10-22T12:32:36.332Z,0.90
2022-10-22T12:35:08.617Z,0.63
2022-10-22T12:37:37.168Z,0.63
2022-10-22T12:40:18.756Z,0.73
2022-10-22T12:43:14.418Z,0.57
2022-10-22T12:45:44.023Z,0.90
2022-10-22T12:48:17.663Z,0.70
2022-10-22T12:50:53.454Z,0.70
2022-10-22T12:53:32.870Z,0.80
2022-10-22T12:56:03.020Z,0.60
2022-10-22T12:58:36.655Z,0.70
2022-10-22T13:01:04.364Z,0.75
2022-10-22T13:03:42.376Z,0.57
2022-10-22T13:06:14.048Z,0.50
2022-10-22T13:08:41.443Z,0.63
2022-10-22T13:11:10.973Z,0.63
2022-10-22T13:13:38.023Z,0.30
2022-10-22T13:16:25.671Z,0.40
2022-10-22T13:18:54.107Z,0.57
2022-10-22T13:21:33.487Z,0.43
2022-10-22T13:24:03.058Z,0.80
2022-10-22T13:26:37.427Z,0.38
2022-10-22T13:29:10.705Z,0.52
2022-10-22T13:31:46.529Z,0.55
2022-10-22T13:34:17.416Z,0.60
2022-10-22T13:36:44.619Z,0.50
2022-10-22T13:39:20.888Z,0.43
2022-10-22T13:41:50.503Z,0.63
2022-10-22T13:44:18.530Z,0.45
2022-10-22T13:46:47.226Z,0.60
2022-10-22T13:49:16.876Z,0.60
2022-10-22T13:51:44.216Z,0.75
2022-10-22T13:54:19.925Z,0.50
2022-10-22T13:56:47.001Z,0.52
2022-10-22T13:59:15.409Z,0.68
2022-10-22T14:01:45.043Z,0.90
2022-10-22T14:04:13.695Z,0.75
2022-10-22T14:06:40.777Z,0.68
2022-10-22T14:09:11.930Z,0.57
2022-10-22T14:11:39.106Z,0.50
2022-10-22T14:14:08.987Z,0.70
2022-10-22T14:16:37.756Z,0.75
2022-10-22T14:19:07.570Z,0.70
2022-10-22T14:21:36.953Z,0.85
2022-10-22T14:24:06.118Z,0.80
2022-10-22T14:26:35.540Z,1.23
2022-10-22T14:29:11.698Z,0.73
2022-10-22T14:34:14.287Z,0.68
2022-10-22T14:36:43.684Z,0.90
2022-10-22T14:39:11.366Z,0.73
2022-10-22T14:41:38.474Z,0.77
2022-10-22T14:44:05.772Z,0.70
2022-10-22T14:46:32.933Z,0.60
2022-10-22T14:48:59.997Z,1.13
2022-10-22T14:51:27.026Z,0.83
2022-10-22T14:53:54.054Z,1.10
2022-10-22T14:56:21.431Z,0.80
2022-10-22T14:58:49.046Z,1.40
2022-10-22T15:01:16.440Z,1.15
2022-10-22T15:03:43.640Z,1.50
2022-10-22T15:06:10.777Z,0.93
2022-10-22T15:08:38.082Z,1.10
2022-10-22T15:11:07.740Z,0.90
2022-10-22T15:13:35.450Z,1.48
2022-10-22T15:16:06.348Z,1.70
2022-10-22T15:18:33.438Z,1.55
2022-10-22T15:21:02.896Z,1.50
2022-10-22T15:23:30.398Z,1.38
2022-10-22T15:25:57.593Z,1.45
2022-10-22T15:28:25.056Z,1.30
2022-10-22T15:31:00.270Z,1.40
2022-10-22T15:33:28.860Z,1.27
2022-10-22T15:35:56.472Z,1.38
2022-10-22T15:38:32.615Z,1.88
2022-10-22T15:41:05.526Z,1.73
2022-10-22T15:43:33.961Z,1.48
2022-10-22T15:46:11.694Z,1.17
2022-10-22T15:48:38.836Z,1.60
2022-10-22T15:51:13.663Z,1.50
2022-10-22T15:53:40.806Z,1.30
2022-10-22T15:56:08.811Z,1.38
2022-10-22T15:58:35.882Z,1.30
2022-10-22T16:01:11.891Z,1.42
2022-10-22T16:03:39.268Z,1.45
2022-10-22T16:06:07.041Z,1.37
2022-10-22T16:08:34.223Z,1.40
2022-10-22T16:11:01.416Z,1.42
2022-10-22T16:13:28.665Z,1.67
2022-10-22T16:15:55.731Z,1.60
2022-10-22T16:18:23.636Z,1.40
2022-10-22T16:20:50.753Z,1.83
2022-10-22T16:23:18.992Z,1.52
2022-10-22T16:25:46.742Z,1.67
2022-10-22T16:28:14.334Z,1.85
2022-10-22T16:30:41.752Z,1.70
2022-10-22T16:33:10.396Z,1.77
2022-10-22T16:35:41.736Z,2.20
2022-10-22T16:38:10.587Z,1.95
2022-10-22T16:40:38.014Z,2.17
2022-10-22T16:43:05.714Z,1.90
2022-10-22T16:45:32.840Z,2.28
2022-10-22T16:47:59.939Z,2.38
2022-10-22T16:50:27.043Z,1.92
2022-10-22T16:52:54.212Z,1.92
2022-10-22T16:55:21.292Z,2.53
2022-10-22T16:57:52.265Z,2.42
2022-10-22T17:00:20.249Z,2.60
2022-10-22T17:02:53.788Z,2.17
2022-10-22T17:05:21.470Z,2.35
2022-10-22T17:07:48.667Z,2.40
2022-10-22T17:10:17.137Z,3.03
2022-10-22T17:12:44.530Z,3.13
2022-10-22T17:15:12.141Z,3.40
2022-10-22T17:17:39.462Z,3.10
2022-10-22T17:20:07.009Z,3.43
2022-10-22T17:22:34.125Z,3.42
2022-10-22T17:25:06.916Z,3.97
2022-10-22T17:27:33.995Z,3.20
2022-10-22T17:30:01.048Z,3.22
2022-10-22T17:32:29.895Z,3.10
2022-10-22T17:34:57.007Z,3.58
2022-10-22T17:37:24.086Z,3.25
2022-10-22T17:39:51.307Z,4.00
2022-10-22T17:42:18.420Z,3.60
2022-10-22T17:44:45.491Z,3.60
2022-10-22T17:47:12.578Z,2.97
2022-10-22T17:49:39.785Z,2.90
2022-10-22T17:52:07.051Z,3.13
2022-10-22T17:54:34.218Z,3.70
2022-10-22T17:57:01.276Z,3.17
2022-10-22T17:59:28.525Z,2.72
2022-10-22T18:01:59.414Z,2.45
2022-10-22T18:04:27.591Z,2.60
2022-10-22T18:06:54.920Z,2.35
2022-10-22T18:09:22.132Z,2.60
2022-10-22T18:11:51.716Z,2.80
2022-10-22T18:14:20.099Z,2.67
2022-10-22T18:16:47.650Z,2.70
2022-10-22T18:19:17.065Z,2.75
2022-10-22T18:21:44.282Z,2.73
2022-10-22T18:24:13.262Z,3.00
2022-10-22T18:26:40.295Z,2.90
2022-10-22T18:29:08.035Z,3.20
2022-10-22T18:31:35.697Z,2.30
2022-10-22T18:34:02.885Z,3.40
2022-10-22T18:36:29.992Z,3.33
2022-10-22T18:38:58.987Z,3.08
2022-10-22T18:41:27.621Z,3.78
2022-10-22T18:44:02.664Z,4.13
2022-10-22T18:46:30.832Z,3.10
2022-10-22T18:48:58.810Z,3.30
2022-10-22T18:51:30.070Z,2.70
2022-10-22T18:54:11.359Z,3.08
2022-10-22T18:56:44.320Z,2.35
2022-10-22T18:59:22.866Z,2.10
2022-10-22T19:01:51.490Z,2.20
2022-10-22T19:04:18.663Z,1.60
2022-10-22T19:06:46.121Z,2.00
2022-10-22T19:09:16.978Z,1.42
2022-10-22T19:11:44.928Z,2.70
2022-10-22T19:14:13.078Z,2.28
2022-10-22T19:16:40.246Z,2.55
2022-10-22T19:19:08.030Z,2.38
2022-10-22T19:21:35.500Z,1.88
2022-10-22T19:24:02.605Z,1.80
2022-10-22T19:26:30.361Z,1.98
2022-10-22T19:28:58.458Z,1.70
2022-10-22T19:31:26.829Z,1.92
2022-10-22T19:33:55.299Z,1.60
2022-10-22T19:36:27.923Z,1.60
2022-10-22T19:38:55.822Z,1.77
2022-10-22T19:41:25.116Z,3.28
2022-10-22T19:43:53.394Z,1.85
2022-10-22T19:46:21.868Z,1.70
2022-10-22T19:48:51.229Z,1.60
2022-10-22T19:51:20.616Z,1.98
2022-10-22T19:53:48.323Z,1.80
2022-10-22T19:56:18.444Z,2.20
2022-10-22T19:58:45.839Z,1.92
2022-10-22T20:01:15.532Z,2.07
2022-10-22T20:03:42.682Z,2.42
2022-10-22T20:06:11.532Z,1.98
2022-10-22T20:08:39.258Z,1.98
2022-10-22T20:11:12.330Z,2.30
2022-10-22T20:16:11.866Z,2.75
2022-10-22T20:18:38.998Z,2.28
2022-10-22T20:21:07.659Z,2.60
2022-10-22T20:23:35.218Z,2.20
2022-10-22T20:26:02.311Z,1.90
2022-10-22T20:28:29.393Z,2.03
2022-10-22T20:30:56.676Z,1.80
2022-10-22T20:33:23.833Z,2.25
2022-10-22T20:36:00.978Z,1.92
2022-10-22T20:38:28.204Z,2.33
2022-10-22T20:41:06.784Z,2.28
2022-10-22T20:43:34.069Z,2.38
2022-10-22T20:46:01.227Z,2.25
2022-10-22T20:48:31.234Z,2.30
2022-10-22T20:50:59.191Z,3.40
2022-10-22T20:53:27.309Z,2.15
2022-10-22T20:55:57.755Z,2.20
2022-10-22T20:58:26.953Z,2.42
2022-10-22T21:00:54.977Z,2.20
2022-10-22T21:03:22.688Z,2.23
2022-10-22T21:05:50.203Z,2.33
2022-10-22T21:08:17.818Z,2.00
2022-10-22T21:10:46.491Z,2.30
2022-10-22T21:13:14.024Z,2.13
2022-10-22T21:15:41.495Z,2.30
2022-10-22T21:18:09.135Z,2.30
2022-10-22T21:20:36.743Z,2.10
2022-10-22T21:23:04.034Z,2.90
2022-10-22T21:25:31.555Z,2.78
2022-10-22T21:27:58.637Z,2.43
2022-10-22T21:30:25.753Z,2.92
2022-10-22T21:32:56.015Z,2.95
2022-10-22T21:35:23.470Z,2.50
2022-10-22T21:37:50.738Z,2.10
2022-10-22T21:40:17.906Z,2.57
2022-10-22T21:42:44.978Z,2.28
2022-10-22T21:45:13.607Z,2.17
2022-10-22T21:47:42.096Z,1.90
2022-10-22T21:50:09.516Z,2.72
2022-10-22T21:52:36.598Z,3.03
2022-10-22T21:55:03.902Z,3.45
2022-10-22T21:57:31.076Z,2.92
2022-10-22T21:59:58.170Z,2.58
2022-10-22T22:02:27.232Z,3.75
2022-10-22T22:04:54.886Z,1.97
2022-10-22T22:07:22.133Z,2.75
2022-10-22T22:09:52.303Z,2.10
2022-10-22T22:12:20.502Z,2.50
2022-10-22T22:14:47.665Z,2.10
2022-10-22T22:17:16.440Z,2.50
2022-10-22T22:19:43.562Z,2.45
2022-10-22T22:22:10.797Z,2.10
2022-10-22T22:24:39.681Z,2.10
2022-10-22T22:27:06.934Z,2.35
2022-10-22T22:29:34.443Z,2.83
2022-10-22T22:32:01.544Z,2.90
2022-10-22T22:34:28.656Z,2.03
2022-10-22T22:36:55.776Z,1.88
2022-10-22T22:39:24.001Z,2.20
2022-10-22T22:41:51.253Z,2.00
2022-10-22T22:44:18.576Z,2.45
2022-10-22T22:46:45.638Z,2.35
2022-10-22T22:49:13.577Z,1.77
2022-10-22T22:51:40.743Z,2.33
2022-10-22T22:54:08.140Z,3.23
2022-10-22T22:56:35.496Z,2.20
2022-10-22T22:59:03.763Z,2.60
2022-10-22T23:01:38.967Z,2.88
2022-10-22T23:04:19.018Z,2.35
2022-10-22T23:06:46.394Z,2.40
2022-10-22T23:09:15.272Z,2.20
2022-10-22T23:11:43.783Z,1.92
2022-10-22T23:14:14.078Z,2.47
2022-10-22T23:16:45.352Z,2.00
2022-10-22T23:19:14.539Z,2.73
2022-10-22T23:21:45.540Z,2.45
2022-10-22T23:24:15.341Z,2.50
2022-10-22T23:26:45.100Z,2.15
2022-10-22T23:29:21.161Z,2.25
2022-10-22T23:31:48.724Z,2.23
2022-10-22T23:34:21.672Z,2.10
2022-10-22T23:36:49.829Z,2.13
2022-10-22T23:39:19.633Z,2.63
2022-10-22T23:41:46.727Z,1.95
2022-10-22T23:44:13.911Z,1.63
2022-10-22T23:46:41.267Z,2.15
2022-10-22T23:49:09.728Z,2.38
2022-10-22T23:51:37.626Z,2.00
2022-10-22T23:54:11.092Z,2.00
2022-10-22T23:56:38.437Z,2.07
2022-10-22T23:59:05.780Z,1.95
